createdAt,value
2022-12-23T00:06:32.492Z,31.38
2022-12-23T01:03:31.283Z,31.43
2022-12-23T01:04:31.222Z,31.46
2022-12-23T01:05:31.211Z,31.46
2022-12-23T01:06:31.188Z,31.45
2022-12-23T01:07:31.164Z,31.44
2022-12-23T01:08:31.148Z,31.46
2022-12-23T01:09:31.122Z,31.48
2022-12-23T01:10:31.097Z,31.47
2022-12-23T01:11:31.063Z,31.48
2022-12-23T01:12:31.051Z,31.49
2022-12-23T01:13:31.014Z,31.48
2022-12-23T01:14:30.998Z,31.49
2022-12-23T01:15:30.975Z,31.50
2022-12-23T01:16:31.001Z,31.46
2022-12-23T01:17:30.934Z,31.49
2022-12-23T01:18:30.940Z,31.50
2022-12-23T01:19:30.894Z,31.50
2022-12-23T01:20:30.903Z,31.52
2022-12-23T01:21:30.862Z,31.47
2022-12-23T01:22:30.841Z,31.49
2022-12-23T01:23:30.801Z,31.48
2022-12-23T01:24:30.802Z,31.47
2022-12-23T01:25:30.811Z,31.48
2022-12-23T01:26:30.735Z,31.48
2022-12-23T01:27:30.733Z,31.47
2022-12-23T01:28:30.707Z,31.49
2022-12-23T01:29:30.666Z,31.51
2022-12-23T01:30:30.654Z,31.50
2022-12-23T01:31:30.656Z,31.51
2022-12-23T01:32:30.625Z,31.49
2022-12-23T01:33:30.600Z,31.47
2022-12-23T01:34:36.395Z,31.48
2022-12-23T01:35:31.550Z,31.52
2022-12-23T01:36:30.514Z,31.49
2022-12-23T01:37:30.515Z,31.50
2022-12-23T01:38:30.502Z,31.47
2022-12-23T01:39:30.459Z,31.48
2022-12-23T01:40:30.428Z,31.47
2022-12-23T01:41:30.402Z,31.49
2022-12-23T01:42:30.386Z,31.49
2022-12-23T01:43:30.377Z,31.49
2022-12-23T01:44:30.336Z,31.47
2022-12-23T01:45:30.341Z,31.46
2022-12-23T01:46:30.343Z,31.45
2022-12-23T01:47:30.287Z,31.47
2022-12-23T01:48:30.260Z,31.46
2022-12-23T01:49:30.260Z,31.45
2022-12-23T01:50:30.243Z,31.45
2022-12-23T01:51:30.194Z,31.46
2022-12-23T01:52:30.208Z,31.46
2022-12-23T01:53:30.147Z,31.46
2022-12-23T01:54:30.130Z,31.47
2022-12-23T01:55:30.116Z,31.46
2022-12-23T02:03:30.386Z,31.44
2022-12-23T06:45:21.215Z,35.31
2022-12-23T06:46:21.170Z,35.07
2022-12-23T06:47:21.110Z,35.48
2022-12-23T06:48:21.039Z,35.57
2022-12-23T06:49:21.009Z,35.42
2022-12-23T06:50:20.945Z,35.61
2022-12-23T06:51:20.900Z,35.20
2022-12-23T06:53:20.953Z,35.64
2022-12-23T06:54:20.794Z,35.68
2022-12-23T06:55:20.722Z,35.72
2022-12-23T06:56:20.705Z,35.99
2022-12-23T06:57:20.682Z,35.89
2022-12-23T06:58:20.632Z,35.91
2022-12-23T06:59:20.647Z,36.17
2022-12-23T07:00:20.517Z,36.17
2022-12-23T07:01:20.519Z,36.33
2022-12-23T07:02:20.593Z,36.26
2022-12-23T07:03:20.416Z,36.32
2022-12-23T07:04:20.307Z,36.44
2022-12-23T07:05:20.262Z,36.44
2022-12-23T07:06:20.219Z,36.49
2022-12-23T07:07:20.162Z,36.55
2022-12-23T07:08:20.136Z,36.70
2022-12-23T09:55:12.982Z,34.51
2022-12-23T10:29:16.848Z,33.08
2022-12-23T10:31:38.565Z,33.03
2022-12-23T10:34:10.867Z,32.98
2022-12-23T10:35:10.849Z,32.94
2022-12-23T10:36:10.887Z,32.91
2022-12-23T10:37:10.811Z,32.91
2022-12-23T10:38:10.675Z,32.92
2022-12-23T10:39:10.645Z,32.87
2022-12-23T10:40:10.570Z,32.82
2022-12-23T10:41:10.522Z,32.85
2022-12-23T10:42:10.503Z,32.78
2022-12-23T10:43:10.428Z,32.76
2022-12-23T10:44:10.355Z,32.87
2022-12-23T10:45:10.312Z,33.13
2022-12-23T10:46:10.337Z,33.34
2022-12-23T10:47:10.294Z,33.37
2022-12-23T10:48:13.918Z,35.56
2022-12-23T13:07:01.594Z,29.66
2022-12-23T13:08:01.533Z,29.84
2022-12-23T13:09:01.453Z,30.01
2022-12-23T13:10:01.397Z,30.15
2022-12-23T13:11:01.353Z,30.32
2022-12-23T13:12:01.264Z,30.50
2022-12-23T13:13:01.260Z,30.69
2022-12-23T13:14:01.151Z,30.90
2022-12-23T13:15:01.100Z,31.09
2022-12-23T13:16:01.093Z,31.25
2022-12-23T13:17:01.161Z,31.36
2022-12-23T13:18:03.705Z,31.50
2022-12-23T13:19:00.914Z,31.62
2022-12-23T13:20:00.793Z,31.71
2022-12-23T13:21:00.809Z,31.78
2022-12-23T13:22:00.674Z,31.88
2022-12-23T13:23:20.717Z,31.95
2022-12-23T13:24:04.134Z,32.05
2022-12-23T13:25:00.509Z,32.09
2022-12-23T13:26:00.452Z,32.15
2022-12-23T13:27:00.385Z,32.23
2022-12-23T13:28:00.337Z,32.29
2022-12-23T13:29:00.330Z,32.33
2022-12-23T13:30:00.221Z,32.43
2022-12-23T13:31:00.171Z,32.48
2022-12-23T15:22:05.340Z,34.44
2022-12-23T16:14:51.283Z,33.47
2022-12-23T16:29:50.427Z,33.86
2022-12-23T16:30:50.371Z,33.90
2022-12-23T16:31:56.046Z,33.90
2022-12-23T16:32:51.261Z,33.93
2022-12-23T16:33:50.206Z,33.92
2022-12-23T16:34:50.140Z,33.94
2022-12-23T17:15:48.068Z,34.31
2022-12-23T17:16:48.177Z,34.30
2022-12-23T17:17:47.994Z,34.30
2022-12-23T17:18:47.926Z,34.32
2022-12-23T17:19:47.875Z,34.32
2022-12-23T17:20:47.818Z,34.31
2022-12-23T17:21:47.784Z,34.34
2022-12-23T17:22:47.753Z,34.31
2022-12-23T17:23:47.673Z,34.35
2022-12-23T17:24:47.633Z,34.32
2022-12-23T17:25:47.615Z,34.35
2022-12-23T17:26:47.543Z,34.33
2022-12-23T17:27:47.514Z,34.36
2022-12-23T17:28:47.458Z,34.36
2022-12-23T17:29:47.392Z,34.35
2022-12-23T17:30:47.344Z,34.35
2022-12-23T17:31:47.311Z,34.38
2022-12-23T17:32:47.212Z,34.37
2022-12-23T17:33:47.158Z,34.36
2022-12-23T17:34:47.094Z,34.37
2022-12-23T17:35:47.050Z,34.37
2022-12-23T17:36:50.385Z,34.35
2022-12-23T17:37:46.963Z,34.38
2022-12-23T17:38:46.896Z,34.40
2022-12-23T17:39:46.871Z,34.40
2022-12-23T17:40:46.831Z,34.39
2022-12-23T17:41:46.744Z,34.40
2022-12-23T17:42:46.716Z,34.40
2022-12-23T17:43:46.656Z,34.40
2022-12-23T17:44:46.595Z,34.41
2022-12-23T17:45:46.538Z,34.41
2022-12-23T17:46:46.553Z,34.41
2022-12-23T17:47:46.456Z,34.42
2022-12-23T17:48:46.397Z,34.43
2022-12-23T17:49:46.350Z,34.43
2022-12-23T17:50:46.307Z,34.43
2022-12-23T17:51:46.238Z,34.44
2022-12-23T17:52:46.204Z,34.46
2022-12-23T17:53:46.841Z,34.44
2022-12-23T17:54:46.106Z,34.46
2022-12-23T17:55:46.136Z,34.46
2022-12-23T17:56:46.028Z,34.46
2022-12-23T17:57:45.958Z,34.44
2022-12-23T17:58:45.906Z,34.45
2022-12-23T17:59:47.815Z,34.46
2022-12-23T18:00:45.836Z,34.46
2022-12-23T18:01:45.899Z,34.44
2022-12-23T18:02:45.815Z,34.45
2022-12-23T18:03:45.683Z,34.46
2022-12-23T18:04:45.643Z,34.48
2022-12-23T18:05:45.578Z,34.46
2022-12-23T18:06:45.538Z,34.44
2022-12-23T18:07:45.497Z,34.45
2022-12-23T18:08:45.447Z,34.45
2022-12-23T18:09:45.405Z,34.45
2022-12-23T18:10:45.346Z,34.46
2022-12-23T18:11:45.321Z,34.45
2022-12-23T18:12:45.240Z,34.49
2022-12-23T18:13:45.183Z,34.47
2022-12-23T18:14:45.149Z,34.51
2022-12-23T18:15:45.107Z,34.46
2022-12-23T18:16:45.199Z,34.49
2022-12-23T18:17:45.051Z,34.49
2022-12-23T18:18:46.888Z,34.50
2022-12-23T18:19:44.888Z,34.49
2022-12-23T18:20:44.840Z,34.51
2022-12-23T18:21:44.789Z,34.48
2022-12-23T18:22:44.860Z,34.50
2022-12-23T18:23:44.690Z,34.48
2022-12-23T18:24:44.647Z,34.48
2022-12-23T18:25:44.583Z,34.50
2022-12-23T18:26:44.550Z,34.52
2022-12-23T18:27:44.493Z,34.52
2022-12-23T18:28:44.496Z,34.50
2022-12-23T18:29:44.372Z,34.51
2022-12-23T18:30:44.352Z,34.50
2022-12-23T18:31:50.161Z,34.49
2022-12-23T18:32:45.226Z,34.52
2022-12-23T18:33:44.168Z,34.51
2022-12-23T18:34:44.115Z,34.51
2022-12-23T18:35:44.060Z,34.51
2022-12-23T18:36:44.130Z,34.52
2022-12-23T18:37:43.963Z,34.52
2022-12-23T18:38:43.911Z,34.52
2022-12-23T18:39:43.840Z,34.51
2022-12-23T18:40:43.849Z,34.51
2022-12-23T18:41:43.749Z,34.50
2022-12-23T18:42:43.704Z,34.53
2022-12-23T18:43:43.628Z,34.50
2022-12-23T18:44:43.578Z,34.52
2022-12-23T18:45:46.550Z,34.51
2022-12-23T18:46:44.509Z,34.51
2022-12-23T18:47:43.427Z,34.52
2022-12-23T18:48:43.386Z,34.53
2022-12-23T18:49:43.333Z,34.50
2022-12-23T18:50:43.308Z,34.50
2022-12-23T18:51:43.219Z,34.50
2022-12-23T18:52:43.169Z,34.53
2022-12-23T18:53:43.164Z,34.51
2022-12-23T18:54:43.081Z,34.50
2022-12-23T18:55:43.042Z,34.51
2022-12-23T18:56:42.999Z,34.54
2022-12-23T18:57:42.972Z,34.52
2022-12-23T18:58:42.900Z,34.53
2022-12-23T18:59:42.854Z,34.52
2022-12-23T19:00:42.810Z,34.53
2022-12-23T19:01:42.871Z,34.53
2022-12-23T19:02:42.760Z,34.53
2022-12-23T19:03:42.695Z,34.55
2022-12-23T19:04:42.639Z,34.52
2022-12-23T19:05:42.595Z,34.53
2022-12-23T19:06:42.564Z,34.52
2022-12-23T19:07:42.499Z,34.54
2022-12-23T19:08:42.455Z,34.54
2022-12-23T19:09:42.391Z,34.51
2022-12-23T19:10:42.341Z,34.54
2022-12-23T19:11:42.300Z,34.53
2022-12-23T19:12:42.245Z,34.52
2022-12-23T19:13:42.253Z,34.56
2022-12-23T19:14:42.159Z,34.53
2022-12-23T19:15:42.215Z,34.52
2022-12-23T19:16:47.569Z,34.51
2022-12-23T19:17:43.030Z,34.53
2022-12-23T19:18:41.989Z,34.51
2022-12-23T19:19:41.924Z,34.55
2022-12-23T19:20:41.888Z,34.53
2022-12-23T19:21:41.831Z,34.53
2022-12-23T19:22:41.795Z,34.50
2022-12-23T19:23:41.754Z,34.52
2022-12-23T19:24:58.290Z,34.53
2022-12-23T19:25:43.515Z,34.53
2022-12-23T19:26:41.632Z,34.54
2022-12-23T19:27:41.604Z,34.55
2022-12-23T19:28:41.707Z,34.54
2022-12-23T19:29:41.475Z,34.53
2022-12-23T19:30:41.507Z,34.55
2022-12-23T19:31:41.435Z,34.56
2022-12-23T19:32:41.371Z,34.55
2022-12-23T19:33:41.305Z,34.54
2022-12-23T19:34:41.238Z,34.55
2022-12-23T19:35:41.217Z,34.53
2022-12-23T19:36:41.229Z,34.55
2022-12-23T19:37:41.102Z,34.54
2022-12-23T19:38:41.060Z,34.53
2022-12-23T19:39:41.048Z,34.56
2022-12-23T19:40:40.966Z,34.57
2022-12-23T19:41:40.909Z,34.53
2022-12-23T19:42:40.877Z,34.55
2022-12-23T19:43:40.832Z,34.56
2022-12-23T19:44:40.774Z,34.56
2022-12-23T19:45:40.720Z,34.54
2022-12-23T19:46:40.704Z,34.53
2022-12-23T19:47:40.690Z,34.55
2022-12-23T19:48:40.616Z,34.56
2022-12-23T19:49:40.544Z,34.56
2022-12-23T19:50:40.475Z,34.55
2022-12-23T19:51:40.420Z,34.56
2022-12-23T19:52:40.382Z,34.56
2022-12-23T19:53:40.315Z,34.55
2022-12-23T19:54:40.281Z,34.55
2022-12-23T19:55:40.267Z,34.55
2022-12-23T19:56:40.166Z,34.53
2022-12-23T19:57:40.113Z,34.56
2022-12-23T21:58:34.155Z,34.47
2022-12-23T21:59:35.421Z,34.47
2022-12-23T22:00:34.096Z,34.47
2022-12-23T22:01:33.993Z,34.47
2022-12-23T22:02:33.972Z,34.46
2022-12-23T22:03:33.871Z,34.48
2022-12-23T22:04:33.822Z,34.48
2022-12-23T22:05:33.779Z,34.45
2022-12-23T22:06:33.718Z,34.44
2022-12-23T22:07:33.673Z,34.48
2022-12-23T22:08:33.645Z,34.44
2022-12-23T22:09:33.580Z,34.43
2022-12-23T22:10:33.515Z,34.45
2022-12-23T22:11:33.490Z,34.42
2022-12-23T22:12:33.425Z,34.46
2022-12-23T22:13:33.390Z,34.46
2022-12-23T22:14:33.326Z,34.47
2022-12-23T22:15:33.285Z,34.48
2022-12-23T22:16:33.339Z,34.46
2022-12-23T22:17:33.160Z,34.46
2022-12-23T22:18:33.114Z,34.45
2022-12-23T22:19:33.057Z,34.47
2022-12-23T22:20:33.028Z,34.49
2022-12-23T22:21:32.961Z,34.49
2022-12-23T22:22:32.899Z,34.45
2022-12-23T22:23:32.853Z,34.46
2022-12-23T22:24:32.789Z,34.46
2022-12-23T22:25:32.751Z,34.46
2022-12-23T22:26:32.748Z,34.48
2022-12-23T22:27:32.655Z,34.43
2022-12-23T22:28:32.612Z,34.46
2022-12-23T22:29:32.592Z,34.45
2022-12-23T22:30:32.519Z,34.46
2022-12-23T22:31:32.541Z,34.46
2022-12-23T22:32:33.947Z,34.47
2022-12-23T22:33:32.333Z,34.47
2022-12-23T22:34:32.289Z,34.47
2022-12-23T22:35:32.228Z,34.46
2022-12-23T22:36:32.260Z,34.49
2022-12-23T22:37:32.137Z,34.46
2022-12-23T22:38:32.089Z,34.45
2022-12-23T22:39:32.014Z,34.48
2022-12-23T22:40:31.964Z,34.44
2022-12-23T22:41:31.903Z,34.43
2022-12-23T22:42:31.854Z,34.46
2022-12-23T22:43:31.799Z,34.43
2022-12-23T22:44:31.747Z,34.44
2022-12-23T22:45:31.732Z,34.44
2022-12-23T22:46:31.700Z,34.44
2022-12-23T22:47:31.600Z,34.45
2022-12-23T22:48:31.529Z,34.43
2022-12-23T22:49:31.481Z,34.43
2022-12-23T22:50:31.439Z,34.42
2022-12-23T22:51:31.408Z,34.42
2022-12-23T22:52:31.331Z,34.43
2022-12-23T22:53:31.272Z,34.44
2022-12-23T22:54:31.228Z,34.41
2022-12-23T22:55:31.166Z,34.42
2022-12-23T22:56:31.143Z,34.40
2022-12-23T22:57:31.141Z,34.41
2022-12-23T22:58:31.033Z,34.41
2022-12-23T22:59:30.978Z,34.42
2022-12-23T23:00:30.939Z,34.43
2022-12-23T23:01:30.936Z,34.39
2022-12-23T23:02:30.879Z,34.38
2022-12-23T23:03:30.775Z,34.39
2022-12-23T23:04:30.715Z,34.41
2022-12-23T23:05:30.737Z,34.39
2022-12-23T23:06:30.626Z,34.42
2022-12-23T23:07:30.568Z,34.41
2022-12-23T23:08:30.533Z,34.40
2022-12-23T23:09:30.469Z,34.42
2022-12-23T23:10:30.409Z,34.41
2022-12-23T23:11:30.372Z,34.42
2022-12-23T23:12:30.928Z,34.41
2022-12-23T23:13:30.254Z,34.41
2022-12-23T23:14:30.205Z,34.41
2022-12-23T23:15:30.164Z,34.40
2022-12-23T23:19:30.941Z,34.40
